Time;durP1;ratioP1;P1;durP2;ratioP2;P2;SDS_P1;SDS_P2;PMS_P1;PMS_P2;Temp;Humidity;BMP_temperature;BMP_pressure;BME280_temperature;BME280_humidity;BME280_pressure;Samples;Min_cycle;Max_cycle;Signal;HPM_P1;HPM_P2
2021/05/03 00:00:17;;;;;;;;;;;;;;;;;;4975390;28;19910;-58
2021/05/03 00:02:42;;;;;;;;;;;;;;;;;;4975688;28;19909;-58
2021/05/03 00:05:07;;;;;;;;;;;;;;;;;;4974537;28;19910;-58
2021/05/03 00:07:32;;;;;;;;;;;;;;;;;;4975418;28;19996;-58
2021/05/03 00:09:58;;;;;;;;;;;;;;;;;;4975639;28;19975;-58
2021/05/03 00:12:23;;;;;;;;;;;;;;;;;;4974110;28;19918;-59
2021/05/03 00:14:50;;;;;;;;;;;;;;;;;;4977169;28;19917;-58
2021/05/03 00:17:15;;;;;;;;;;;;;;;;;;4975542;28;19940;-58
2021/05/03 00:19:40;;;;;;;;;;;;;;;;;;4973906;28;19926;-58
2021/05/03 00:22:05;;;;;;;;;;;;;;;;;;4957758;28;19914;-57
2021/05/03 00:24:30;;;;;;;;;;;;;;;;;;4973579;28;19910;-56
2021/05/03 00:26:56;;;;;;;;;;;;;;;;;;4975385;28;20338;-58
2021/05/03 00:29:21;;;;;;;;;;;;;;;;;;4974787;28;19957;-58
2021/05/03 00:31:46;;;;;;;;;;;;;;;;;;4975039;28;19910;-59
2021/05/03 00:34:13;;;;;;;;;;;;;;;;;;4975155;28;19910;-58
2021/05/03 00:36:38;;;;;;;;;;;;;;;;;;4973151;28;20338;-58
2021/05/03 00:39:03;;;;;;;;;;;;;;;;;;4975128;28;19917;-58
2021/05/03 00:41:29;;;;;;;;;;;;;;;;;;4974958;28;19988;-58
2021/05/03 00:43:54;;;;;;;;;;;;;;;;;;4973266;28;19906;-58
2021/05/03 00:46:20;;;;;;;;;;;;;;;;;;4974962;28;19937;-58
2021/05/03 00:48:45;;;;;;;;;;;;;;;;;;4974375;28;20291;-58
2021/05/03 00:51:10;;;;;;;;;;;;;;;;;;4974778;28;19917;-57
2021/05/03 00:53:36;;;;;;;;;;;;;;;;;;4956096;28;19917;-59
2021/05/03 00:56:01;;;;;;;;;;;;;;;;;;4966218;28;19910;-58
2021/05/03 00:58:26;;;;;;;;;;;;;;;;;;4953621;29;19920;-59
2021/05/03 01:00:51;;;;;;;;;;;;;;;;;;4955480;29;19914;-58
2021/05/03 01:03:16;;;;;;;;;;;;;;;;;;4954122;29;20271;-58
2021/05/03 01:05:42;;;;;;;;;;;;;;;;;;4954871;29;20339;-58
2021/05/03 01:08:07;;;;;;;;;;;;;;;;;;4955110;29;20331;-58
2021/05/03 01:10:32;;;;;;;;;;;;;;;;;;4953364;29;20359;-58
2021/05/03 01:12:57;;;;;;;;;;;;;;;;;;4937739;29;19961;-58
2021/05/03 01:15:24;;;;;;;;;;;;;;;;;;4955013;29;19929;-59
2021/05/03 01:17:49;;;;;;;;;;;;;;;;;;4954856;28;19915;-59
2021/05/03 01:20:14;;;;;;;;;;;;;;;;;;4955088;29;19929;-58
2021/05/03 01:22:39;;;;;;;;;;;;;;;;;;4954672;29;19934;-58
2021/05/03 01:25:05;;;;;;;;;;;;;;;;;;4955040;29;19910;-59
2021/05/03 01:27:30;;;;;;;;;;;;;;;;;;4953193;29;19914;-59
2021/05/03 01:29:55;;;;;;;;;;;;;;;;;;4955843;29;19957;-59
2021/05/03 01:32:20;;;;;;;;;;;;;;;;;;4953886;28;20397;-56
2021/05/03 01:34:45;;;;;;;;;;;;;;;;;;4954010;29;19906;-58
2021/05/03 01:37:11;;;;;;;;;;;;;;;;;;4954939;29;19985;-59
2021/05/03 01:39:36;;;;;;;;;;;;;;;;;;4954706;29;19910;-57
2021/05/03 01:42:01;;;;;;;;;;;;;;;;;;4954845;29;19957;-58
2021/05/03 01:44:26;;;;;;;;;;;;;;;;;;4955671;29;19911;-58
2021/05/03 01:46:52;;;;;;;;;;;;;;;;;;4956051;29;19911;-58
2021/05/03 01:49:17;;;;;;;;;;;;;;;;;;4954951;29;19911;-58
2021/05/03 01:51:42;;;;;;;;;;;;;;;;;;4954279;29;19910;-59
2021/05/03 01:54:07;;;;;;;;;;;;;;;;;;4954528;29;19914;-59
2021/05/03 01:56:33;;;;;;;;;;;;;;;;;;4953965;29;19910;-60
2021/05/03 01:58:58;;;;;;;;;;;;;;;;;;4954646;28;19960;-61
2021/05/03 02:01:23;;;;;;;;;;;;;;;;;;4937569;29;19954;-57
2021/05/03 02:03:48;;;;;;;;;;;;;;;;;;4954773;29;19937;-59
2021/05/03 02:06:14;;;;;;;;;;;;;;;;;;4953533;29;20355;-59
2021/05/03 02:08:41;;;;;;;;;;;;;;;;;;4953000;29;19914;-59
2021/05/03 02:11:06;;;;;;;;;;;;;;;;;;4954264;29;20362;-58
2021/05/03 02:13:31;;;;;;;;;;;;;;;;;;4954219;29;19969;-58
2021/05/03 02:15:58;;;;;;;;;;;;;;;;;;4954528;29;20358;-59
2021/05/03 02:18:23;;;;;;;;;;;;;;;;;;4954568;28;19921;-58
2021/05/03 02:20:48;;;;;;;;;;;;;;;;;;4954441;29;19914;-59
2021/05/03 02:23:13;;;;;;;;;;;;;;;;;;4954351;29;19933;-59
2021/05/03 02:25:39;;;;;;;;;;;;;;;;;;4954260;28;19911;-58
2021/05/03 02:28:04;;;;;;;;;;;;;;;;;;4969844;28;20001;-58
2021/05/03 02:30:29;;;;;;;;;;;;;;;;;;4974173;28;20000;-58
2021/05/03 02:32:54;;;;;;;;;;;;;;;;;;4973305;28;19985;-58
2021/05/03 02:35:19;;;;;;;;;;;;;;;;;;4973452;28;19914;-58
2021/05/03 02:37:47;;;;;;;;;;;;;;;;;;4971874;28;19918;-58
2021/05/03 02:40:12;;;;;;;;;;;;;;;;;;4973530;28;19960;-58
2021/05/03 02:42:37;;;;;;;;;;;;;;;;;;4971653;28;20000;-58
2021/05/03 02:45:02;;;;;;;;;;;;;;;;;;4974905;28;19960;-58
2021/05/03 02:47:28;;;;;;;;;;;;;;;;;;4977167;28;20314;-58
2021/05/03 02:49:53;;;;;;;;;;;;;;;;;;4975825;28;20013;-58
2021/05/03 02:52:18;;;;;;;;;;;;;;;;;;4959746;28;20062;-58
2021/05/03 02:54:43;;;;;;;;;;;;;;;;;;4976557;28;20393;-58
2021/05/03 02:57:09;;;;;;;;;;;;;;;;;;4975200;28;19941;-58
2021/05/03 02:59:34;;;;;;;;;;;;;;;;;;4959468;28;19914;-59
2021/05/03 03:01:59;;;;;;;;;;;;;;;;;;4975533;28;19964;-59
2021/05/03 03:04:24;;;;;;;;;;;;;;;;;;4959414;28;19914;-58
2021/05/03 03:06:50;;;;;;;;;;;;;;;;;;4976411;28;20350;-58
2021/05/03 03:09:15;;;;;;;;;;;;;;;;;;4976639;28;19910;-59
2021/05/03 03:11:43;;;;;;;;;;;;;;;;;;4976430;28;19914;-59
2021/05/03 03:14:08;;;;;;;;;;;;;;;;;;4976638;28;19945;-58
2021/05/03 03:16:34;;;;;;;;;;;;;;;;;;4975615;28;19910;-59
2021/05/03 03:19:00;;;;;;;;;;;;;;;;;;4975999;28;19921;-59
2021/05/03 03:21:25;;;;;;;;;;;;;;;;;;4976199;28;19910;-59
2021/05/03 03:23:50;;;;;;;;;;;;;;;;;;4958567;28;20337;-58
2021/05/03 03:26:15;;;;;;;;;;;;;;;;;;4975046;28;20008;-57
2021/05/03 03:28:41;;;;;;;;;;;;;;;;;;4976175;28;19913;-59
2021/05/03 03:31:06;;;;;;;;;;;;;;;;;;4975104;28;19932;-59
2021/05/03 03:33:31;;;;;;;;;;;;;;;;;;4976145;28;19910;-59
2021/05/03 03:35:56;;;;;;;;;;;;;;;;;;4974760;28;19910;-59
2021/05/03 03:38:22;;;;;;;;;;;;;;;;;;4976015;28;19918;-58
2021/05/03 03:40:47;;;;;;;;;;;;;;;;;;4974786;28;19917;-58
2021/05/03 03:43:12;;;;;;;;;;;;;;;;;;4974433;28;19910;-58
2021/05/03 03:45:37;;;;;;;;;;;;;;;;;;4975948;28;19993;-59
2021/05/03 03:48:02;;;;;;;;;;;;;;;;;;4974460;28;20355;-58
2021/05/03 03:50:28;;;;;;;;;;;;;;;;;;4975797;28;20303;-58
2021/05/03 03:52:53;;;;;;;;;;;;;;;;;;4975958;28;19983;-59
2021/05/03 03:55:18;;;;;;;;;;;;;;;;;;4974327;28;19910;-58
2021/05/03 03:57:43;;;;;;;;;;;;;;;;;;4975183;28;20004;-58
2021/05/03 04:00:09;;;;;;;;;;;;;;;;;;4975814;28;19950;-57
2021/05/03 04:02:35;;;;;;;;;;;;;;;;;;4974667;28;19909;-59
2021/05/03 04:07:40;;;;;;;;;;;;;;;;;;4975984;28;19922;-59
2021/05/03 04:25:30;;;;;;;;;;;;;;;;;;4975084;28;19910;-58
2021/05/03 04:27:56;;;;;;;;;;;;;;;;;;4975047;28;19913;-59
2021/05/03 04:30:21;;;;;;;;;;;;;;;;;;4975150;28;19917;-58
2021/05/03 04:32:46;;;;;;;;;;;;;;;;;;4974929;28;19957;-58
2021/05/03 04:35:11;;;;;;;;;;;;;;;;;;4957430;28;20248;-58
2021/05/03 04:37:36;;;;;;;;;;;;;;;;;;4973566;28;20298;-58
2021/05/03 04:40:02;;;;;;;;;;;;;;;;;;4974648;28;19910;-60
2021/05/03 04:42:27;;;;;;;;;;;;;;;;;;4974839;28;19913;-59
2021/05/03 04:44:52;;;;;;;;;;;;;;;;;;4974539;28;20428;-59
2021/05/03 04:47:17;;;;;;;;;;;;;;;;;;4957709;28;19910;-59
2021/05/03 04:49:43;;;;;;;;;;;;;;;;;;4974691;28;19910;-58
2021/05/03 04:52:08;;;;;;;;;;;;;;;;;;4974309;28;20417;-59
2021/05/03 04:54:33;;;;;;;;;;;;;;;;;;4957513;28;19911;-59
2021/05/03 04:56:58;;;;;;;;;;;;;;;;;;4973227;28;19922;-59
2021/05/03 04:59:23;;;;;;;;;;;;;;;;;;4957543;28;19996;-59
2021/05/03 05:01:49;;;;;;;;;;;;;;;;;;4974263;28;19910;-58
2021/05/03 05:04:14;;;;;;;;;;;;;;;;;;4974457;28;20236;-62
2021/05/03 05:06:39;;;;;;;;;;;;;;;;;;4974298;28;19921;-58
2021/05/03 05:09:05;;;;;;;;;;;;;;;;;;4973956;28;20330;-58
2021/05/03 05:11:30;;;;;;;;;;;;;;;;;;4973412;28;19925;-59
2021/05/03 05:13:55;;;;;;;;;;;;;;;;;;4956764;28;19941;-58
2021/05/03 05:16:20;;;;;;;;;;;;;;;;;;4972974;28;19933;-59
2021/05/03 05:18:46;;;;;;;;;;;;;;;;;;4972769;28;19991;-59
2021/05/03 05:21:11;;;;;;;;;;;;;;;;;;4956511;28;19964;-58
2021/05/03 05:23:36;;;;;;;;;;;;;;;;;;4973088;28;19910;-58
2021/05/03 05:26:02;;;;;;;;;;;;;;;;;;4973836;28;19910;-58
2021/05/03 05:28:27;;;;;;;;;;;;;;;;;;4971203;28;19910;-58
2021/05/03 05:30:52;;;;;;;;;;;;;;;;;;4959897;28;20440;-58
2021/05/03 05:33:17;;;;;;;;;;;;;;;;;;4972305;28;20275;-59
2021/05/03 05:35:43;;;;;;;;;;;;;;;;;;4973828;28;19985;-57
2021/05/03 05:38:08;;;;;;;;;;;;;;;;;;4971988;28;19969;-58
2021/05/03 05:40:33;;;;;;;;;;;;;;;;;;4973915;28;19909;-59
2021/05/03 05:42:58;;;;;;;;;;;;;;;;;;4956447;28;19973;-58
2021/05/03 05:45:23;;;;;;;;;;;;;;;;;;4973831;28;20009;-59
2021/05/03 05:47:49;;;;;;;;;;;;;;;;;;4973581;28;19910;-58
2021/05/03 05:50:14;;;;;;;;;;;;;;;;;;4972278;28;19910;-58
2021/05/03 05:52:39;;;;;;;;;;;;;;;;;;4972593;28;19910;-59
2021/05/03 05:55:04;;;;;;;;;;;;;;;;;;4973216;28;19933;-59
2021/05/03 05:57:30;;;;;;;;;;;;;;;;;;4972264;28;19918;-58
2021/05/03 05:59:55;;;;;;;;;;;;;;;;;;4973440;28;19997;-59
2021/05/03 06:02:20;;;;;;;;;;;;;;;;;;4972175;28;19918;-60
2021/05/03 06:04:45;;;;;;;;;;;;;;;;;;4973621;28;19917;-58
2021/05/03 06:07:11;;;;;;;;;;;;;;;;;;4973130;28;19917;-58
2021/05/03 06:09:36;;;;;;;;;;;;;;;;;;4956384;28;19917;-58
2021/05/03 06:12:01;;;;;;;;;;;;;;;;;;4971488;28;19917;-58
2021/05/03 06:14:26;;;;;;;;;;;;;;;;;;4972215;28;19949;-58
2021/05/03 06:16:52;;;;;;;;;;;;;;;;;;4973516;28;19917;-58
2021/05/03 06:19:17;;;;;;;;;;;;;;;;;;4973713;28;19920;-58
2021/05/03 06:21:43;;;;;;;;;;;;;;;;;;4977044;28;19910;-58
2021/05/03 06:24:08;;;;;;;;;;;;;;;;;;4977138;28;20338;-59
2021/05/03 06:26:33;;;;;;;;;;;;;;;;;;4977290;28;19910;-58
2021/05/03 06:28:58;;;;;;;;;;;;;;;;;;4977635;28;19990;-59
2021/05/03 06:31:24;;;;;;;;;;;;;;;;;;4975895;28;20382;-58
2021/05/03 06:33:49;;;;;;;;;;;;;;;;;;4977398;28;20266;-59
2021/05/03 06:36:14;;;;;;;;;;;;;;;;;;4977223;28;20056;-58
2021/05/03 06:38:39;;;;;;;;;;;;;;;;;;4976510;28;20288;-59
2021/05/03 06:41:04;;;;;;;;;;;;;;;;;;4975459;28;20004;-60
2021/05/03 06:43:30;;;;;;;;;;;;;;;;;;4977759;28;19914;-58
2021/05/03 06:45:56;;;;;;;;;;;;;;;;;;4976847;28;20049;-59
2021/05/03 06:48:22;;;;;;;;;;;;;;;;;;4977531;28;20378;-58
2021/05/03 06:50:47;;;;;;;;;;;;;;;;;;4976964;28;19999;-59
2021/05/03 06:53:12;;;;;;;;;;;;;;;;;;4975655;28;19969;-59
2021/05/03 06:55:38;;;;;;;;;;;;;;;;;;4976041;28;19906;-59
2021/05/03 06:58:03;;;;;;;;;;;;;;;;;;4975481;28;19949;-59
2021/05/03 07:00:28;;;;;;;;;;;;;;;;;;4976015;28;19918;-58
2021/05/03 07:02:53;;;;;;;;;;;;;;;;;;4975457;28;19961;-58
2021/05/03 07:05:18;;;;;;;;;;;;;;;;;;4975551;28;20309;-58
2021/05/03 07:07:44;;;;;;;;;;;;;;;;;;4976814;28;19910;-58
2021/05/03 07:10:09;;;;;;;;;;;;;;;;;;4976760;28;20358;-58
2021/05/03 07:12:36;;;;;;;;;;;;;;;;;;4959242;28;20385;-58
2021/05/03 07:15:01;;;;;;;;;;;;;;;;;;4976524;28;19980;-58
2021/05/03 07:17:26;;;;;;;;;;;;;;;;;;4975137;28;20377;-58
2021/05/03 07:19:51;;;;;;;;;;;;;;;;;;4974293;28;20025;-58
2021/05/03 07:22:17;;;;;;;;;;;;;;;;;;4975481;28;19931;-58
2021/05/03 07:24:42;;;;;;;;;;;;;;;;;;4975013;28;20386;-58
2021/05/03 07:27:07;;;;;;;;;;;;;;;;;;4975406;28;20417;-59
2021/05/03 07:29:32;;;;;;;;;;;;;;;;;;4975921;28;19914;-58
2021/05/03 07:31:58;;;;;;;;;;;;;;;;;;4975282;28;20063;-59
2021/05/03 07:34:23;;;;;;;;;;;;;;;;;;4974306;28;19913;-59
2021/05/03 07:36:48;;;;;;;;;;;;;;;;;;4975317;28;20012;-57
2021/05/03 07:39:14;;;;;;;;;;;;;;;;;;4975115;28;19917;-58
2021/05/03 07:41:40;;;;;;;;;;;;;;;;;;4977107;28;19910;-58
2021/05/03 07:44:06;;;;;;;;;;;;;;;;;;4974753;28;20377;-58
2021/05/03 07:46:31;;;;;;;;;;;;;;;;;;4974152;28;19914;-58
2021/05/03 07:48:56;;;;;;;;;;;;;;;;;;4976012;28;19976;-58
2021/05/03 07:51:21;;;;;;;;;;;;;;;;;;4975833;28;20321;-58
2021/05/03 07:53:47;;;;;;;;;;;;;;;;;;4974269;28;19913;-60
2021/05/03 07:56:15;;;;;;;;;;;;;;;;;;4958939;28;19932;-59
2021/05/03 07:58:40;;;;;;;;;;;;;;;;;;4958606;28;19914;-59
2021/05/03 08:01:05;;;;;;;;;;;;;;;;;;4975540;28;19921;-58
2021/05/03 08:03:30;;;;;;;;;;;;;;;;;;4974114;28;20336;-59
2021/05/03 08:05:55;;;;;;;;;;;;;;;;;;4974388;28;19910;-60
2021/05/03 08:08:22;;;;;;;;;;;;;;;;;;4974647;28;19910;-59
2021/05/03 08:10:47;;;;;;;;;;;;;;;;;;4975052;28;19910;-59
2021/05/03 08:13:12;;;;;;;;;;;;;;;;;;4975072;28;19910;-58
2021/05/03 08:15:40;;;;;;;;;;;;;;;;;;4958101;28;20013;-58
2021/05/03 08:18:05;;;;;;;;;;;;;;;;;;4975217;28;19913;-59
2021/05/03 08:20:30;;;;;;;;;;;;;;;;;;4974463;28;20021;-58
2021/05/03 08:22:56;;;;;;;;;;;;;;;;;;4957994;28;19917;-58
2021/05/03 08:25:21;;;;;;;;;;;;;;;;;;4973952;28;20196;-58
2021/05/03 08:27:46;;;;;;;;;;;;;;;;;;4974167;28;19956;-58
2021/05/03 08:30:11;;;;;;;;;;;;;;;;;;4975222;28;19910;-58
2021/05/03 08:32:37;;;;;;;;;;;;;;;;;;4973839;28;20385;-60
2021/05/03 08:35:02;;;;;;;;;;;;;;;;;;4974843;28;19910;-58
2021/05/03 08:37:27;;;;;;;;;;;;;;;;;;4974699;28;20017;-58
2021/05/03 08:39:52;;;;;;;;;;;;;;;;;;4975294;28;19957;-58
2021/05/03 08:42:19;;;;;;;;;;;;;;;;;;4973273;28;19910;-59
2021/05/03 08:44:51;;;;;;;;;;;;;;;;;;4973552;28;20271;-58
2021/05/03 08:47:16;;;;;;;;;;;;;;;;;;4972984;28;19910;-58
2021/05/03 08:49:55;;;;;;;;;;;;;;;;;;4973282;28;19910;-58
2021/05/03 08:55:15;;;;;;;;;;;;;;;;;;4960637;28;19926;-59
2021/05/03 08:57:40;;;;;;;;;;;;;;;;;;4974550;28;19917;-58
2021/05/03 09:00:05;;;;;;;;;;;;;;;;;;4974580;28;19910;-58
2021/05/03 09:02:31;;;;;;;;;;;;;;;;;;4956962;28;20366;-58
2021/05/03 09:04:57;;;;;;;;;;;;;;;;;;4974138;28;20354;-58
2021/05/03 09:07:22;;;;;;;;;;;;;;;;;;4974178;28;19914;-58
2021/05/03 09:09:47;;;;;;;;;;;;;;;;;;4973305;28;19906;-58
2021/05/03 09:12:12;;;;;;;;;;;;;;;;;;4972698;28;19969;-58
2021/05/03 09:14:37;;;;;;;;;;;;;;;;;;4973122;28;19997;-58
2021/05/03 09:17:03;;;;;;;;;;;;;;;;;;4974282;28;19925;-59
2021/05/03 09:19:28;;;;;;;;;;;;;;;;;;4972769;28;20017;-58
2021/05/03 09:21:54;;;;;;;;;;;;;;;;;;4972867;28;19954;-58
2021/05/03 09:24:27;;;;;;;;;;;;;;;;;;4974002;28;19980;-57
2021/05/03 09:26:55;;;;;;;;;;;;;;;;;;4962298;28;19958;-58
2021/05/03 09:29:21;;;;;;;;;;;;;;;;;;4970002;28;19914;-58
2021/05/03 09:31:46;;;;;;;;;;;;;;;;;;4972788;28;20052;-58
2021/05/03 09:34:11;;;;;;;;;;;;;;;;;;4972686;28;19916;-59
2021/05/03 09:36:36;;;;;;;;;;;;;;;;;;4973175;28;19942;-57
2021/05/03 09:39:04;;;;;;;;;;;;;;;;;;4974114;28;19957;-58
2021/05/03 09:41:29;;;;;;;;;;;;;;;;;;4973748;28;19917;-58
2021/05/03 09:43:54;;;;;;;;;;;;;;;;;;4974718;28;19910;-59
2021/05/03 09:46:19;;;;;;;;;;;;;;;;;;4974875;28;19945;-59
2021/05/03 09:48:45;;;;;;;;;;;;;;;;;;4974587;28;20008;-59
2021/05/03 09:51:10;;;;;;;;;;;;;;;;;;4973294;28;20366;-58
2021/05/03 09:53:35;;;;;;;;;;;;;;;;;;4973247;28;19957;-58
2021/05/03 09:56:00;;;;;;;;;;;;;;;;;;4974450;28;19917;-57
2021/05/03 09:58:26;;;;;;;;;;;;;;;;;;4974038;28;20298;-58
2021/05/03 10:00:51;;;;;;;;;;;;;;;;;;4973960;28;19921;-59
2021/05/03 10:03:16;;;;;;;;;;;;;;;;;;4975273;28;19954;-58
2021/05/03 10:05:41;;;;;;;;;;;;;;;;;;4975115;28;19910;-59
2021/05/03 10:08:06;;;;;;;;;;;;;;;;;;4975168;28;19938;-58
2021/05/03 10:10:38;;;;;;;;;;;;;;;;;;4974036;28;20362;-57
2021/05/03 10:13:03;;;;;;;;;;;;;;;;;;4974141;28;20016;-58
2021/05/03 10:15:28;;;;;;;;;;;;;;;;;;4974932;28;20004;-59
2021/05/03 10:17:53;;;;;;;;;;;;;;;;;;4971997;28;19914;-59
2021/05/03 10:20:20;;;;;;;;;;;;;;;;;;4972344;28;19929;-57
2021/05/03 10:22:46;;;;;;;;;;;;;;;;;;4973946;28;19961;-58
2021/05/03 10:25:11;;;;;;;;;;;;;;;;;;4972785;28;19918;-59
2021/05/03 10:27:36;;;;;;;;;;;;;;;;;;4972627;28;20000;-58
2021/05/03 10:30:01;;;;;;;;;;;;;;;;;;4973838;28;19977;-58
2021/05/03 10:32:26;;;;;;;;;;;;;;;;;;4972936;28;20302;-58
2021/05/03 10:34:52;;;;;;;;;;;;;;;;;;4972215;28;20005;-58
2021/05/03 10:37:18;;;;;;;;;;;;;;;;;;4972884;28;20353;-63
2021/05/03 10:39:43;;;;;;;;;;;;;;;;;;4973161;28;19925;-58
2021/05/03 10:42:10;;;;;;;;;;;;;;;;;;4973399;28;19910;-59
2021/05/03 10:44:37;;;;;;;;;;;;;;;;;;4972985;28;20368;-59
2021/05/03 10:47:08;;;;;;;;;;;;;;;;;;4972882;28;19914;-58
2021/05/03 10:49:33;;;;;;;;;;;;;;;;;;4972713;28;19914;-58
2021/05/03 10:52:09;;;;;;;;;;;;;;;;;;4973378;28;20402;-59
2021/05/03 10:54:41;;;;;;;;;;;;;;;;;;4981084;28;20002;-59
2021/05/03 10:57:06;;;;;;;;;;;;;;;;;;4974739;28;19916;-58
2021/05/03 10:59:31;;;;;;;;;;;;;;;;;;4973186;28;19910;-57
2021/05/03 11:01:59;;;;;;;;;;;;;;;;;;4973308;28;19910;-57
2021/05/03 11:04:24;;;;;;;;;;;;;;;;;;4979971;28;19910;-59
2021/05/03 11:06:49;;;;;;;;;;;;;;;;;;4979061;28;19917;-57
2021/05/03 11:09:15;;;;;;;;;;;;;;;;;;4976082;28;19914;-57
2021/05/03 11:11:40;;;;;;;;;;;;;;;;;;4975792;28;19910;-56
2021/05/03 11:14:05;;;;;;;;;;;;;;;;;;4975187;28;19949;-58
2021/05/03 11:16:33;;;;;;;;;;;;;;;;;;4976401;28;19913;-58
2021/05/03 11:18:59;;;;;;;;;;;;;;;;;;4975380;28;19914;-58
2021/05/03 11:21:24;;;;;;;;;;;;;;;;;;4976020;28;19960;-58
2021/05/03 11:23:50;;;;;;;;;;;;;;;;;;4974412;28;19946;-57
2021/05/03 11:26:15;;;;;;;;;;;;;;;;;;4968111;28;19917;-57
2021/05/03 11:28:42;;;;;;;;;;;;;;;;;;4965237;28;19918;-57
2021/05/03 11:31:07;;;;;;;;;;;;;;;;;;4967066;28;20266;-58
2021/05/03 11:33:33;;;;;;;;;;;;;;;;;;4972686;28;19917;-58
2021/05/03 11:36:03;;;;;;;;;;;;;;;;;;4967639;28;20335;-59
2021/05/03 11:38:44;;;;;;;;;;;;;;;;;;4965946;28;20337;-58
2021/05/03 11:41:21;;;;;;;;;;;;;;;;;;4968006;28;20405;-59
2021/05/03 11:46:14;;;;;;;;;;;;;;;;;;4967507;28;20377;-57
2021/05/03 11:48:40;;;;;;;;;;;;;;;;;;4965356;28;19922;-58
2021/05/03 11:51:05;;;;;;;;;;;;;;;;;;4965280;28;19964;-58
2021/05/03 11:53:30;;;;;;;;;;;;;;;;;;4965906;28;19943;-58
2021/05/03 11:55:55;;;;;;;;;;;;;;;;;;4974901;28;19918;-57
2021/05/03 11:58:21;;;;;;;;;;;;;;;;;;4973488;28;19918;-58
2021/05/03 12:00:46;;;;;;;;;;;;;;;;;;4973225;28;19921;-59
2021/05/03 12:03:13;;;;;;;;;;;;;;;;;;4957573;28;19922;-58
2021/05/03 12:05:38;;;;;;;;;;;;;;;;;;4974889;28;19910;-59
2021/05/03 12:08:03;;;;;;;;;;;;;;;;;;4974183;28;19906;-59
2021/05/03 12:10:30;;;;;;;;;;;;;;;;;;4974208;28;19910;-58
2021/05/03 12:12:57;;;;;;;;;;;;;;;;;;4973533;28;19910;-59
2021/05/03 12:15:22;;;;;;;;;;;;;;;;;;4975177;28;19993;-58
2021/05/03 12:17:47;;;;;;;;;;;;;;;;;;4973206;28;20457;-59
2021/05/03 12:20:13;;;;;;;;;;;;;;;;;;4975015;28;20040;-59
2021/05/03 12:22:38;;;;;;;;;;;;;;;;;;4974831;28;19914;-59
2021/05/03 12:25:05;;;;;;;;;;;;;;;;;;4974443;28;20243;-59
2021/05/03 12:27:30;;;;;;;;;;;;;;;;;;4972563;28;19976;-59
2021/05/03 12:29:55;;;;;;;;;;;;;;;;;;4974391;28;19918;-58
2021/05/03 12:32:21;;;;;;;;;;;;;;;;;;4975106;28;19914;-57
2021/05/03 12:34:48;;;;;;;;;;;;;;;;;;4974758;28;19914;-57
2021/05/03 12:37:14;;;;;;;;;;;;;;;;;;4974758;28;19917;-58
2021/05/03 12:39:41;;;;;;;;;;;;;;;;;;4972582;28;19918;-59
2021/05/03 12:42:06;;;;;;;;;;;;;;;;;;4974333;28;19910;-59
2021/05/03 12:44:31;;;;;;;;;;;;;;;;;;4974640;28;19917;-59
2021/05/03 12:46:56;;;;;;;;;;;;;;;;;;4974454;28;19910;-58
2021/05/03 12:49:22;;;;;;;;;;;;;;;;;;4972602;28;19906;-58
2021/05/03 12:51:52;;;;;;;;;;;;;;;;;;4975063;28;19940;-59
2021/05/03 12:54:33;;;;;;;;;;;;;;;;;;4975326;28;20057;-58
2021/05/03 12:59:36;;;;;;;;;;;;;;;;;;4972905;28;20362;-58
2021/05/03 13:02:05;;;;;;;;;;;;;;;;;;4973111;28;20045;-58
2021/05/03 13:04:35;;;;;;;;;;;;;;;;;;4971168;28;20166;-56
2021/05/03 13:12:25;;;;;;;;;;;;;;;;;;4974119;28;19956;-58
2021/05/03 13:23:40;;;;;;;;;;;;;;;;;;4954644;29;19917;-57
2021/05/03 13:28:34;;;;;;;;;;;;;;;;;;4950623;28;20425;-57
2021/05/03 13:30:59;;;;;;;;;;;;;;;;;;4973609;28;19968;-58
2021/05/03 13:33:24;;;;;;;;;;;;;;;;;;4972967;28;20005;-60
2021/05/03 13:35:49;;;;;;;;;;;;;;;;;;4973831;28;19910;-61
2021/05/03 13:38:15;;;;;;;;;;;;;;;;;;4973728;28;19931;-57
2021/05/03 13:40:41;;;;;;;;;;;;;;;;;;4971798;28;19914;-57
2021/05/03 13:43:06;;;;;;;;;;;;;;;;;;4973662;28;19996;-58
2021/05/03 13:45:32;;;;;;;;;;;;;;;;;;4973886;28;19957;-55
2021/05/03 13:47:57;;;;;;;;;;;;;;;;;;4973628;28;19940;-57
2021/05/03 13:50:22;;;;;;;;;;;;;;;;;;4973930;28;19922;-58
2021/05/03 13:52:48;;;;;;;;;;;;;;;;;;4972431;28;19913;-58
2021/05/03 13:55:22;;;;;;;;;;;;;;;;;;4972731;28;20392;-58
2021/05/03 13:57:47;;;;;;;;;;;;;;;;;;4975172;28;19910;-58
2021/05/03 14:00:12;;;;;;;;;;;;;;;;;;4973236;28;19914;-58
2021/05/03 14:02:38;;;;;;;;;;;;;;;;;;4974703;28;19914;-60
2021/05/03 14:05:03;;;;;;;;;;;;;;;;;;4976343;28;19910;-58
2021/05/03 14:07:28;;;;;;;;;;;;;;;;;;4980918;28;19921;-58
2021/05/03 14:09:53;;;;;;;;;;;;;;;;;;4981229;28;19916;-58
2021/05/03 14:12:19;;;;;;;;;;;;;;;;;;4953968;28;19910;-58
2021/05/03 14:14:44;;;;;;;;;;;;;;;;;;4953885;28;20001;-59
2021/05/03 14:17:09;;;;;;;;;;;;;;;;;;4954862;29;19910;-58
2021/05/03 14:19:40;;;;;;;;;;;;;;;;;;4959916;29;20336;-57
2021/05/03 14:22:06;;;;;;;;;;;;;;;;;;4982695;28;20001;-58
2021/05/03 14:24:31;;;;;;;;;;;;;;;;;;4976065;28;20012;-58
2021/05/03 14:26:56;;;;;;;;;;;;;;;;;;4970389;28;19914;-58
2021/05/03 14:31:50;;;;;;;;;;;;;;;;;;4974459;28;19906;-58
2021/05/03 14:34:29;;;;;;;;;;;;;;;;;;4973375;28;20009;-58
2021/05/03 14:36:54;;;;;;;;;;;;;;;;;;4973733;28;19910;-58
2021/05/03 14:39:19;;;;;;;;;;;;;;;;;;4972654;28;19918;-58
2021/05/03 14:41:44;;;;;;;;;;;;;;;;;;4976368;28;19910;-57
2021/05/03 14:44:13;;;;;;;;;;;;;;;;;;4976795;28;20327;-59
2021/05/03 14:46:43;;;;;;;;;;;;;;;;;;4976882;28;20290;-58
2021/05/03 14:56:29;;;;;;;;;;;;;;;;;;4975670;28;20431;-59
2021/05/03 14:58:55;;;;;;;;;;;;;;;;;;4976675;28;19922;-58
2021/05/03 15:01:20;;;;;;;;;;;;;;;;;;4976661;28;20321;-58
2021/05/03 15:03:46;;;;;;;;;;;;;;;;;;4976484;28;20267;-58
2021/05/03 15:06:12;;;;;;;;;;;;;;;;;;4977838;28;20365;-58
2021/05/03 15:08:38;;;;;;;;;;;;;;;;;;4982063;28;20040;-59
2021/05/03 15:11:03;;;;;;;;;;;;;;;;;;4983259;28;19998;-58
2021/05/03 15:16:02;;;;;;;;;;;;;;;;;;4976495;28;19910;-58
2021/05/03 15:23:48;;;;;;;;;;;;;;;;;;4975827;28;19996;-57
2021/05/03 15:26:19;;;;;;;;;;;;;;;;;;4975442;28;19958;-58
2021/05/03 15:28:54;;;;;;;;;;;;;;;;;;4976304;28;19921;-57
2021/05/03 15:31:47;;;;;;;;;;;;;;;;;;4975017;28;19910;-57
2021/05/03 15:34:12;;;;;;;;;;;;;;;;;;4976145;28;19910;-56
2021/05/03 15:36:37;;;;;;;;;;;;;;;;;;4976426;28;19917;-56
2021/05/03 15:39:02;;;;;;;;;;;;;;;;;;4974088;28;19921;-57
2021/05/03 15:41:28;;;;;;;;;;;;;;;;;;4975377;28;19910;-56
2021/05/03 15:43:54;;;;;;;;;;;;;;;;;;4975990;28;19933;-58
2021/05/03 15:46:19;;;;;;;;;;;;;;;;;;4976143;28;20365;-58
2021/05/03 15:48:45;;;;;;;;;;;;;;;;;;4975636;28;19914;-57
2021/05/03 15:51:14;;;;;;;;;;;;;;;;;;4973872;28;19933;-58
2021/05/03 15:53:39;;;;;;;;;;;;;;;;;;4975760;28;19964;-57
2021/05/03 15:56:04;;;;;;;;;;;;;;;;;;4974327;28;19910;-58
2021/05/03 15:58:30;;;;;;;;;;;;;;;;;;4975174;28;19953;-59
2021/05/03 16:00:55;;;;;;;;;;;;;;;;;;4975269;28;20365;-58
2021/05/03 16:03:21;;;;;;;;;;;;;;;;;;4974251;28;19914;-56
2021/05/03 16:05:47;;;;;;;;;;;;;;;;;;4970848;28;19918;-56
2021/05/03 16:08:12;;;;;;;;;;;;;;;;;;4975042;28;19910;-57
2021/05/03 16:10:39;;;;;;;;;;;;;;;;;;4970031;28;19964;-57
2021/05/03 16:13:04;;;;;;;;;;;;;;;;;;4971259;28;19910;-59
2021/05/03 16:15:29;;;;;;;;;;;;;;;;;;4974951;28;19932;-58
2021/05/03 16:17:55;;;;;;;;;;;;;;;;;;4974689;28;19914;-58
2021/05/03 16:20:20;;;;;;;;;;;;;;;;;;4970919;28;19914;-54
2021/05/03 16:22:45;;;;;;;;;;;;;;;;;;4973712;28;19917;-57
2021/05/03 16:25:10;;;;;;;;;;;;;;;;;;4974381;28;20330;-54
2021/05/03 16:27:36;;;;;;;;;;;;;;;;;;4971603;28;20318;-57
2021/05/03 16:30:01;;;;;;;;;;;;;;;;;;4974841;28;19914;-55
2021/05/03 16:32:26;;;;;;;;;;;;;;;;;;4971053;28;20314;-58
2021/05/03 16:34:51;;;;;;;;;;;;;;;;;;4974705;28;19914;-58
2021/05/03 16:37:17;;;;;;;;;;;;;;;;;;4975008;28;19953;-56
2021/05/03 16:39:42;;;;;;;;;;;;;;;;;;4974342;28;19918;-50
2021/05/03 16:42:07;;;;;;;;;;;;;;;;;;4974929;28;19910;-58
2021/05/03 16:44:33;;;;;;;;;;;;;;;;;;4974579;28;19917;-54
2021/05/03 16:46:58;;;;;;;;;;;;;;;;;;4974456;28;19913;-57
2021/05/03 16:49:23;;;;;;;;;;;;;;;;;;4974913;28;19914;-56
2021/05/03 16:51:49;;;;;;;;;;;;;;;;;;4978454;28;20286;-58
2021/05/03 16:54:14;;;;;;;;;;;;;;;;;;4978341;28;20390;-56
2021/05/03 16:56:39;;;;;;;;;;;;;;;;;;4975479;28;20357;-53
2021/05/03 16:59:04;;;;;;;;;;;;;;;;;;4973379;28;19922;-54
2021/05/03 17:01:30;;;;;;;;;;;;;;;;;;4975047;28;19965;-57
2021/05/03 17:03:55;;;;;;;;;;;;;;;;;;4973863;28;20004;-53
2021/05/03 17:06:20;;;;;;;;;;;;;;;;;;4965123;28;20212;-57
2021/05/03 17:08:45;;;;;;;;;;;;;;;;;;4953641;28;19939;-58
2021/05/03 17:11:11;;;;;;;;;;;;;;;;;;4955211;28;19961;-57
2021/05/03 17:13:36;;;;;;;;;;;;;;;;;;4955230;29;20414;-57
2021/05/03 17:16:01;;;;;;;;;;;;;;;;;;4954982;28;19965;-55
2021/05/03 17:18:27;;;;;;;;;;;;;;;;;;4953658;29;19925;-56
2021/05/03 17:20:52;;;;;;;;;;;;;;;;;;4953525;29;19985;-57
2021/05/03 17:23:18;;;;;;;;;;;;;;;;;;4953191;29;19910;-57
2021/05/03 17:25:43;;;;;;;;;;;;;;;;;;4955348;28;19910;-57
2021/05/03 17:28:08;;;;;;;;;;;;;;;;;;4954729;29;19910;-58
2021/05/03 17:30:34;;;;;;;;;;;;;;;;;;4955173;28;19911;-57
2021/05/03 17:32:59;;;;;;;;;;;;;;;;;;4954577;29;20070;-58
2021/05/03 17:35:25;;;;;;;;;;;;;;;;;;4953037;28;20021;-58